Glory Ace — 3FAF9 — position and weather

sailwx.info

Track history (hours):
 
Tides and Currents Weather Stations Pressure Air Temp Water Temp Dewpoint Dewpoint Depression Visibility Wind Speed Wind Dir Waves Ship Positions

Glory Ace

Last reported at 2015-Jan-27 13:16 UTC. Time now 2015-Jan-29 22:27 UTC.
Position S 28°17' E 153°43'.

Length 190 m; draft 6.2 m.

Type: Cargo ship. MMSI: 357130000.

Date/timePositionNaut miles runAvg speedWind from/ knotsBaromVisibWave heightAir tempDewpointWater temp
2015-Jan-27 13:16S 28°17' E 153°43'810.6
2015-Jan-27 12:33S 28°10' E 153°42'1110.7
2015-Jan-27 11:33S 27°59' E 153°42'1111.2
2015-Jan-27 10:33S 27°48' E 153°43'1111.3
2015-Jan-27 09:33S 27°36' E 153°43'1211.5
2015-Jan-27 08:33S 27°25' E 153°43'1111.5
2015-Jan-27 07:33S 27°13' E 153°42'1211.8
2015-Jan-27 06:33S 27°02' E 153°40'1211.7
2015-Jan-27 05:32S 26°50' E 153°41'1711.6
2015-Jan-27 04:04S 26°33' E 153°43'7512.7
2015-Jan-26 22:11S 25°18' E 153°48'  
Track history (hours):
 
Tides and Currents Weather Stations Pressure Air Temp Water Temp Dewpoint Dewpoint Depression Visibility Wind Speed Wind Dir Waves Ship Positions

Glory Ace

Last reported at 2015-Jan-27 13:16 UTC. Time now 2015-Jan-29 22:27 UTC.
Position S 28°17' E 153°43'.

Length 190 m; draft 6.2 m.

Type: Cargo ship. MMSI: 357130000.

Date/timePositionNaut miles runAvg speedWind from/ knotsBaromVisibWave heightAir tempDewpointWater temp
2015-Jan-27 13:16S 28°17' E 153°43'810.6
2015-Jan-27 12:33S 28°10' E 153°42'1110.7
2015-Jan-27 11:33S 27°59' E 153°42'1111.2
2015-Jan-27 10:33S 27°48' E 153°43'1111.3
2015-Jan-27 09:33S 27°36' E 153°43'1211.5
2015-Jan-27 08:33S 27°25' E 153°43'1111.5
2015-Jan-27 07:33S 27°13' E 153°42'1211.8
2015-Jan-27 06:33S 27°02' E 153°40'1211.7
2015-Jan-27 05:32S 26°50' E 153°41'1711.6
2015-Jan-27 04:04S 26°33' E 153°43'7512.7
2015-Jan-26 22:11S 25°18' E 153°48'  

Dump ship's entire track history